This is the latest recevied weather packets stored in our database for station/object N5DGC. If no packets are shown the sender has not sent any weather packets the latest 10 day(s).
| Time | Temp. | Humidity | Pressure | Rain* | Wind** | Luminosity | Snow |
|---|---|---|---|---|---|---|---|
| 1787788100 | 28.89° C | 27% | 1242.2 hPa | 0 mm | - | 57 W/m² | - |
| 1787787796 | 29.44° C | 26% | 1242.1 hPa | 0 mm | - | 53 W/m² | - |
| 1787787494 | 29.44° C | 26% | 1242.2 hPa | 0 mm | - | 54 W/m² | - |
| 1787787189 | 30° C | 24% | 1242.4 hPa | 0 mm | - | 56 W/m² | - |
| 1787786889 | 31.11° C | 21% | 1242.1 hPa | 0 mm | - | 61 W/m² | - |
| 1787786584 | 31.11° C | 20% | 1242.3 hPa | 0 mm | - | 67 W/m² | - |
| 1787786279 | 31.67° C | 20% | 1242.2 hPa | 0 mm | - | 73 W/m² | - |
| 1787785975 | 31.67° C | 20% | 1241.9 hPa | 0 mm | - | 83 W/m² | - |
| 1787785670 | 31.67° C | 20% | 1241.7 hPa | 0 mm | - | 98 W/m² | - |
| 1787785369 | 32.78° C | 19% | 1241.8 hPa | 0 mm | - | 110 W/m² | - |
| 1787785069 | 33.33° C | 17% | 1241.6 hPa | 0 mm | - | 123 W/m² | - |
| 1787784764 | 33.33° C | 17% | 1241.6 hPa | 0 mm | - | 137 W/m² | - |
| 1787784463 | 33.89° C | 17% | 1241.7 hPa | 0 mm | - | 145 W/m² | - |
| 1787784163 | 33.89° C | 18% | 1241.7 hPa | 0 mm | - | 163 W/m² | - |
| 1787783859 | 33.89° C | 20% | 1241.4 hPa | 0 mm | - | 176 W/m² | - |
| 1787783555 | 33.89° C | 20% | 1241.6 hPa | 0 mm | - | 188 W/m² | - |
| 1787783249 | 34.44° C | 20% | 1241.5 hPa | 0 mm | - | 205 W/m² | - |
| 1787782945 | 34.44° C | 20% | 1241.2 hPa | 0 mm | - | 234 W/m² | - |
| 1787782644 | 34.44° C | 20% | 1241.6 hPa | 0 mm | - | 258 W/m² | - |
| 1787782339 | 34.44° C | 19% | 1241.5 hPa | 0 mm | - | 284 W/m² | - |
| 1787782035 | 34.44° C | 19% | 1241.2 hPa | 0 mm | - | 242 W/m² | - |
| 1787781730 | 35° C | 19% | 1241.4 hPa | 0 mm | - | 233 W/m² | - |
| 1787781428 | 35° C | 20% | 1241.5 hPa | 0 mm | - | 263 W/m² | - |
| 1787781122 | 35° C | 20% | 1241.6 hPa | 0 mm | - | 280 W/m² | - |
| 1787780821 | 35° C | 20% | 1241.5 hPa | 0 mm | - | 261 W/m² | - |
* Rain latest hour (hover to see other rain measurements)
** Current wind speed in m/s (hover to see current wind gust speed)